sensor_id;sensor_type;location;lat;lon;timestamp;temperature;humidity
3678;DHT22;1855;50.934;6.958;2023-09-19T00:00:06;16.40;99.90
3678;DHT22;1855;50.934;6.958;2023-09-19T00:02:38;16.30;99.90
3678;DHT22;1855;50.934;6.958;2023-09-19T00:05:05;16.30;99.90
3678;DHT22;1855;50.934;6.958;2023-09-19T00:07:33;16.30;99.90
3678;DHT22;1855;50.934;6.958;2023-09-19T00:10:02;16.30;99.90
3678;DHT22;1855;50.934;6.958;2023-09-19T00:12:30;16.30;99.90
3678;DHT22;1855;50.934;6.958;2023-09-19T00:14:58;16.20;99.90
3678;DHT22;1855;50.934;6.958;2023-09-19T00:17:26;16.20;99.90
3678;DHT22;1855;50.934;6.958;2023-09-19T00:19:56;16.20;99.90
3678;DHT22;1855;50.934;6.958;2023-09-19T00:22:23;16.20;99.90
3678;DHT22;1855;50.934;6.958;2023-09-19T00:24:51;16.10;99.90
3678;DHT22;1855;50.934;6.958;2023-09-19T00:27:18;16.20;99.90
3678;DHT22;1855;50.934;6.958;2023-09-19T00:29:45;16.20;99.90
3678;DHT22;1855;50.934;6.958;2023-09-19T00:32:13;16.20;99.90
3678;DHT22;1855;50.934;6.958;2023-09-19T00:34:40;16.10;99.90
3678;DHT22;1855;50.934;6.958;2023-09-19T00:37:07;16.20;99.90
3678;DHT22;1855;50.934;6.958;2023-09-19T00:39:36;16.10;99.90
3678;DHT22;1855;50.934;6.958;2023-09-19T00:42:03;16.10;99.90
3678;DHT22;1855;50.934;6.958;2023-09-19T00:44:30;16.10;99.90
3678;DHT22;1855;50.934;6.958;2023-09-19T00:46:59;16.10;99.90
3678;DHT22;1855;50.934;6.958;2023-09-19T00:49:27;16.00;99.90
3678;DHT22;1855;50.934;6.958;2023-09-19T00:51:53;16.00;99.90
3678;DHT22;1855;50.934;6.958;2023-09-19T00:54:21;16.00;99.90
3678;DHT22;1855;50.934;6.958;2023-09-19T00:56:48;16.00;99.90
3678;DHT22;1855;50.934;6.958;2023-09-19T00:59:16;16.00;99.90
3678;DHT22;1855;50.934;6.958;2023-09-19T01:01:43;16.00;99.90
3678;DHT22;1855;50.934;6.958;2023-09-19T01:04:11;16.00;99.90
3678;DHT22;1855;50.934;6.958;2023-09-19T01:06:39;16.00;99.90
3678;DHT22;1855;50.934;6.958;2023-09-19T01:09:06;16.10;99.90
3678;DHT22;1855;50.934;6.958;2023-09-19T01:11:37;16.10;99.90
3678;DHT22;1855;50.934;6.958;2023-09-19T01:14:13;16.10;99.90
3678;DHT22;1855;50.934;6.958;2023-09-19T01:16:47;16.10;99.90
3678;DHT22;1855;50.934;6.958;2023-09-19T01:19:38;16.20;99.90
3678;DHT22;1855;50.934;6.958;2023-09-19T01:22:18;16.20;99.90
3678;DHT22;1855;50.934;6.958;2023-09-19T01:25:03;16.20;99.90
3678;DHT22;1855;50.934;6.958;2023-09-19T01:27:53;16.20;99.90
3678;DHT22;1855;50.934;6.958;2023-09-19T01:30:27;16.20;99.90
3678;DHT22;1855;50.934;6.958;2023-09-19T01:32:56;16.10;99.90
3678;DHT22;1855;50.934;6.958;2023-09-19T01:35:23;16.10;99.90
3678;DHT22;1855;50.934;6.958;2023-09-19T01:37:49;16.10;99.90
3678;DHT22;1855;50.934;6.958;2023-09-19T01:40:18;16.10;99.90
3678;DHT22;1855;50.934;6.958;2023-09-19T01:42:50;16.10;99.90
3678;DHT22;1855;50.934;6.958;2023-09-19T01:45:31;16.10;99.90
3678;DHT22;1855;50.934;6.958;2023-09-19T01:48:09;16.10;99.90
3678;DHT22;1855;50.934;6.958;2023-09-19T01:50:44;16.10;99.90
3678;DHT22;1855;50.934;6.958;2023-09-19T01:53:18;16.10;99.90
3678;DHT22;1855;50.934;6.958;2023-09-19T01:55:48;16.00;99.90
3678;DHT22;1855;50.934;6.958;2023-09-19T01:58:20;16.10;99.90
3678;DHT22;1855;50.934;6.958;2023-09-19T02:00:50;16.00;99.90
3678;DHT22;1855;50.934;6.958;2023-09-19T02:03:18;16.00;99.90
3678;DHT22;1855;50.934;6.958;2023-09-19T02:05:49;16.00;99.90
3678;DHT22;1855;50.934;6.958;2023-09-19T02:08:17;16.00;99.70
3678;DHT22;1855;50.934;6.958;2023-09-19T02:10:44;16.00;99.60
3678;DHT22;1855;50.934;6.958;2023-09-19T02:13:15;16.00;99.20
3678;DHT22;1855;50.934;6.958;2023-09-19T02:15:42;16.00;99.00
3678;DHT22;1855;50.934;6.958;2023-09-19T02:18:11;16.00;98.60
3678;DHT22;1855;50.934;6.958;2023-09-19T02:20:38;16.00;98.90
3678;DHT22;1855;50.934;6.958;2023-09-19T02:23:05;15.90;99.20
3678;DHT22;1855;50.934;6.958;2023-09-19T02:25:32;15.90;99.50
3678;DHT22;1855;50.934;6.958;2023-09-19T02:27:58;15.90;99.50
3678;DHT22;1855;50.934;6.958;2023-09-19T02:30:26;15.90;99.70
3678;DHT22;1855;50.934;6.958;2023-09-19T02:32:53;15.90;99.00
3678;DHT22;1855;50.934;6.958;2023-09-19T02:35:21;15.90;99.00
3678;DHT22;1855;50.934;6.958;2023-09-19T02:37:48;15.90;98.90
3678;DHT22;1855;50.934;6.958;2023-09-19T02:40:15;15.80;99.10
3678;DHT22;1855;50.934;6.958;2023-09-19T02:42:45;15.80;99.40
3678;DHT22;1855;50.934;6.958;2023-09-19T02:45:16;15.70;99.40
3678;DHT22;1855;50.934;6.958;2023-09-19T02:47:44;15.70;99.60
3678;DHT22;1855;50.934;6.958;2023-09-19T02:50:11;15.70;99.90
3678;DHT22;1855;50.934;6.958;2023-09-19T02:52:41;15.70;99.90
3678;DHT22;1855;50.934;6.958;2023-09-19T02:55:09;15.70;99.80
3678;DHT22;1855;50.934;6.958;2023-09-19T02:57:37;15.70;99.80
3678;DHT22;1855;50.934;6.958;2023-09-19T03:00:07;15.60;99.60
3678;DHT22;1855;50.934;6.958;2023-09-19T03:02:35;15.60;99.70
3678;DHT22;1855;50.934;6.958;2023-09-19T03:05:04;15.60;99.60
3678;DHT22;1855;50.934;6.958;2023-09-19T03:07:31;15.60;99.50
3678;DHT22;1855;50.934;6.958;2023-09-19T03:09:59;15.50;99.60
3678;DHT22;1855;50.934;6.958;2023-09-19T03:12:26;15.50;99.80
3678;DHT22;1855;50.934;6.958;2023-09-19T03:14:53;15.50;99.90
3678;DHT22;1855;50.934;6.958;2023-09-19T03:17:21;15.50;99.90
3678;DHT22;1855;50.934;6.958;2023-09-19T03:19:47;15.40;99.90
3678;DHT22;1855;50.934;6.958;2023-09-19T03:22:14;15.40;99.90
3678;DHT22;1855;50.934;6.958;2023-09-19T03:24:41;15.40;99.90
3678;DHT22;1855;50.934;6.958;2023-09-19T03:27:10;15.40;99.90
3678;DHT22;1855;50.934;6.958;2023-09-19T03:29:41;15.30;99.90
3678;DHT22;1855;50.934;6.958;2023-09-19T03:32:08;15.30;99.90
3678;DHT22;1855;50.934;6.958;2023-09-19T03:34:36;15.30;99.90
3678;DHT22;1855;50.934;6.958;2023-09-19T03:37:04;15.30;99.90
3678;DHT22;1855;50.934;6.958;2023-09-19T03:39:32;15.30;99.90
3678;DHT22;1855;50.934;6.958;2023-09-19T03:41:58;15.30;99.90
3678;DHT22;1855;50.934;6.958;2023-09-19T03:44:26;15.30;99.90
3678;DHT22;1855;50.934;6.958;2023-09-19T03:46:53;15.20;99.90
3678;DHT22;1855;50.934;6.958;2023-09-19T03:49:22;15.20;99.90
3678;DHT22;1855;50.934;6.958;2023-09-19T03:51:48;15.20;99.90
3678;DHT22;1855;50.934;6.958;2023-09-19T03:54:15;15.20;99.90
3678;DHT22;1855;50.934;6.958;2023-09-19T03:56:42;15.20;99.90
3678;DHT22;1855;50.934;6.958;2023-09-19T03:59:09;15.20;99.90
3678;DHT22;1855;50.934;6.958;2023-09-19T04:01:38;15.10;99.90
3678;DHT22;1855;50.934;6.958;2023-09-19T04:04:06;15.20;99.90
3678;DHT22;1855;50.934;6.958;2023-09-19T04:06:34;15.20;99.90
3678;DHT22;1855;50.934;6.958;2023-09-19T04:09:01;15.10;99.90
3678;DHT22;1855;50.934;6.958;2023-09-19T04:11:28;15.10;99.90
3678;DHT22;1855;50.934;6.958;2023-09-19T04:13:55;15.10;99.90
3678;DHT22;1855;50.934;6.958;2023-09-19T04:16:22;15.10;99.90
3678;DHT22;1855;50.934;6.958;2023-09-19T04:18:50;15.10;99.90
3678;DHT22;1855;50.934;6.958;2023-09-19T04:21:17;15.00;99.90
3678;DHT22;1855;50.934;6.958;2023-09-19T04:23:45;15.00;99.90
3678;DHT22;1855;50.934;6.958;2023-09-19T04:26:11;15.00;99.90
3678;DHT22;1855;50.934;6.958;2023-09-19T04:28:38;15.00;99.90
3678;DHT22;1855;50.934;6.958;2023-09-19T04:31:06;15.00;99.90
3678;DHT22;1855;50.934;6.958;2023-09-19T04:33:34;15.00;99.90
3678;DHT22;1855;50.934;6.958;2023-09-19T04:36:02;15.00;99.90
3678;DHT22;1855;50.934;6.958;2023-09-19T04:38:30;15.00;99.90
3678;DHT22;1855;50.934;6.958;2023-09-19T04:40:57;15.00;99.90
3678;DHT22;1855;50.934;6.958;2023-09-19T04:43:25;14.90;99.40
3678;DHT22;1855;50.934;6.958;2023-09-19T04:45:52;14.90;99.20
3678;DHT22;1855;50.934;6.958;2023-09-19T04:48:21;14.90;98.00
3678;DHT22;1855;50.934;6.958;2023-09-19T04:50:49;15.00;97.80
3678;DHT22;1855;50.934;6.958;2023-09-19T04:53:17;14.90;97.80
3678;DHT22;1855;50.934;6.958;2023-09-19T04:55:49;14.90;97.90
3678;DHT22;1855;50.934;6.958;2023-09-19T04:58:16;14.90;97.90
3678;DHT22;1855;50.934;6.958;2023-09-19T05:00:43;14.90;96.80
3678;DHT22;1855;50.934;6.958;2023-09-19T05:03:10;14.90;96.60
3678;DHT22;1855;50.934;6.958;2023-09-19T05:05:37;14.90;96.50
3678;DHT22;1855;50.934;6.958;2023-09-19T05:08:04;14.90;96.70
3678;DHT22;1855;50.934;6.958;2023-09-19T05:10:33;14.90;96.40
3678;DHT22;1855;50.934;6.958;2023-09-19T05:13:00;14.90;96.80
3678;DHT22;1855;50.934;6.958;2023-09-19T05:15:27;14.90;96.20
3678;DHT22;1855;50.934;6.958;2023-09-19T05:17:54;15.00;96.30
3678;DHT22;1855;50.934;6.958;2023-09-19T05:20:21;14.90;96.40
3678;DHT22;1855;50.934;6.958;2023-09-19T05:22:59;14.90;96.40
3678;DHT22;1855;50.934;6.958;2023-09-19T05:25:28;14.90;96.40
3678;DHT22;1855;50.934;6.958;2023-09-19T05:27:57;14.90;96.40
3678;DHT22;1855;50.934;6.958;2023-09-19T05:30:25;14.90;96.60
3678;DHT22;1855;50.934;6.958;2023-09-19T05:32:54;14.90;96.80
3678;DHT22;1855;50.934;6.958;2023-09-19T05:35:22;14.80;96.50
3678;DHT22;1855;50.934;6.958;2023-09-19T05:37:50;14.90;96.00
3678;DHT22;1855;50.934;6.958;2023-09-19T05:40:17;14.90;95.90
3678;DHT22;1855;50.934;6.958;2023-09-19T05:42:46;14.90;95.40
3678;DHT22;1855;50.934;6.958;2023-09-19T05:45:14;14.90;95.60
3678;DHT22;1855;50.934;6.958;2023-09-19T05:47:44;14.90;95.80
3678;DHT22;1855;50.934;6.958;2023-09-19T05:50:12;14.90;95.30
3678;DHT22;1855;50.934;6.958;2023-09-19T05:52:40;15.00;95.50
3678;DHT22;1855;50.934;6.958;2023-09-19T05:55:09;14.90;96.10
3678;DHT22;1855;50.934;6.958;2023-09-19T05:57:36;14.90;95.40
3678;DHT22;1855;50.934;6.958;2023-09-19T06:00:05;14.90;96.00
3678;DHT22;1855;50.934;6.958;2023-09-19T06:02:35;14.90;95.80
3678;DHT22;1855;50.934;6.958;2023-09-19T06:05:03;15.00;95.70
3678;DHT22;1855;50.934;6.958;2023-09-19T06:07:31;15.00;95.90
3678;DHT22;1855;50.934;6.958;2023-09-19T06:10:02;15.00;95.70
3678;DHT22;1855;50.934;6.958;2023-09-19T06:12:31;15.00;95.70
3678;DHT22;1855;50.934;6.958;2023-09-19T06:14:58;15.00;95.70
3678;DHT22;1855;50.934;6.958;2023-09-19T06:17:25;15.00;95.60
3678;DHT22;1855;50.934;6.958;2023-09-19T06:19:54;15.00;96.30
3678;DHT22;1855;50.934;6.958;2023-09-19T06:22:21;15.00;95.90
3678;DHT22;1855;50.934;6.958;2023-09-19T06:24:49;15.00;96.10
3678;DHT22;1855;50.934;6.958;2023-09-19T06:27:16;15.00;96.50
3678;DHT22;1855;50.934;6.958;2023-09-19T06:29:42;15.00;95.70
3678;DHT22;1855;50.934;6.958;2023-09-19T06:32:09;15.00;96.40
3678;DHT22;1855;50.934;6.958;2023-09-19T06:34:36;15.00;96.70
3678;DHT22;1855;50.934;6.958;2023-09-19T06:37:05;15.10;96.00
3678;DHT22;1855;50.934;6.958;2023-09-19T06:39:32;15.10;96.10
3678;DHT22;1855;50.934;6.958;2023-09-19T06:41:59;15.10;95.90
3678;DHT22;1855;50.934;6.958;2023-09-19T06:44:27;15.20;95.90
3678;DHT22;1855;50.934;6.958;2023-09-19T06:46:55;15.20;96.80
3678;DHT22;1855;50.934;6.958;2023-09-19T06:49:22;15.20;96.30
3678;DHT22;1855;50.934;6.958;2023-09-19T06:51:48;15.30;95.40
3678;DHT22;1855;50.934;6.958;2023-09-19T06:54:16;15.40;95.20
3678;DHT22;1855;50.934;6.958;2023-09-19T06:56:43;15.40;95.10
3678;DHT22;1855;50.934;6.958;2023-09-19T06:59:10;15.50;95.20
3678;DHT22;1855;50.934;6.958;2023-09-19T07:01:40;15.50;94.90
3678;DHT22;1855;50.934;6.958;2023-09-19T07:04:07;15.50;94.60
3678;DHT22;1855;50.934;6.958;2023-09-19T07:06:33;15.60;95.00
3678;DHT22;1855;50.934;6.958;2023-09-19T07:09:01;15.60;94.10
3678;DHT22;1855;50.934;6.958;2023-09-19T07:11:29;15.70;94.50
3678;DHT22;1855;50.934;6.958;2023-09-19T07:13:57;15.70;94.50
3678;DHT22;1855;50.934;6.958;2023-09-19T07:16:24;15.80;94.70
3678;DHT22;1855;50.934;6.958;2023-09-19T07:18:54;15.80;94.20
3678;DHT22;1855;50.934;6.958;2023-09-19T07:21:21;15.90;94.30
3678;DHT22;1855;50.934;6.958;2023-09-19T07:23:48;15.90;94.20
3678;DHT22;1855;50.934;6.958;2023-09-19T07:26:15;16.00;94.40
3678;DHT22;1855;50.934;6.958;2023-09-19T07:28:43;16.00;93.30
3678;DHT22;1855;50.934;6.958;2023-09-19T07:31:10;16.00;92.90
3678;DHT22;1855;50.934;6.958;2023-09-19T07:33:38;16.00;93.10
3678;DHT22;1855;50.934;6.958;2023-09-19T07:36:05;16.10;93.10
3678;DHT22;1855;50.934;6.958;2023-09-19T07:38:36;16.10;93.70
3678;DHT22;1855;50.934;6.958;2023-09-19T07:41:03;16.20;92.40
3678;DHT22;1855;50.934;6.958;2023-09-19T07:43:30;16.20;92.00
3678;DHT22;1855;50.934;6.958;2023-09-19T07:46:04;16.20;92.30
3678;DHT22;1855;50.934;6.958;2023-09-19T07:48:32;16.30;92.70
3678;DHT22;1855;50.934;6.958;2023-09-19T07:51:02;16.40;92.50
3678;DHT22;1855;50.934;6.958;2023-09-19T07:53:29;16.50;92.30
3678;DHT22;1855;50.934;6.958;2023-09-19T07:56:03;16.60;91.70
3678;DHT22;1855;50.934;6.958;2023-09-19T07:58:30;16.70;90.90
3678;DHT22;1855;50.934;6.958;2023-09-19T08:01:04;16.80;91.00
3678;DHT22;1855;50.934;6.958;2023-09-19T08:03:30;17.00;89.60
3678;DHT22;1855;50.934;6.958;2023-09-19T08:05:57;17.20;90.30
3678;DHT22;1855;50.934;6.958;2023-09-19T08:08:24;17.30;88.90
3678;DHT22;1855;50.934;6.958;2023-09-19T08:10:53;17.30;88.40
3678;DHT22;1855;50.934;6.958;2023-09-19T08:13:22;17.40;86.30
3678;DHT22;1855;50.934;6.958;2023-09-19T08:15:49;17.40;87.60
3678;DHT22;1855;50.934;6.958;2023-09-19T08:18:17;17.50;87.70
3678;DHT22;1855;50.934;6.958;2023-09-19T08:20:49;17.70;87.50
3678;DHT22;1855;50.934;6.958;2023-09-19T08:23:16;17.80;85.00
3678;DHT22;1855;50.934;6.958;2023-09-19T08:25:43;17.90;85.20
3678;DHT22;1855;50.934;6.958;2023-09-19T08:28:10;18.00;83.80
3678;DHT22;1855;50.934;6.958;2023-09-19T08:30:43;18.00;84.70
3678;DHT22;1855;50.934;6.958;2023-09-19T08:33:09;18.10;83.70
3678;DHT22;1855;50.934;6.958;2023-09-19T08:35:37;18.20;82.40
3678;DHT22;1855;50.934;6.958;2023-09-19T08:38:05;18.20;81.00
3678;DHT22;1855;50.934;6.958;2023-09-19T08:40:32;18.10;82.20
3678;DHT22;1855;50.934;6.958;2023-09-19T08:43:00;18.20;80.40
3678;DHT22;1855;50.934;6.958;2023-09-19T08:45:27;18.20;81.00
3678;DHT22;1855;50.934;6.958;2023-09-19T08:48:00;18.30;80.50
3678;DHT22;1855;50.934;6.958;2023-09-19T08:50:29;18.40;80.30
3678;DHT22;1855;50.934;6.958;2023-09-19T08:53:01;18.40;80.30
3678;DHT22;1855;50.934;6.958;2023-09-19T08:55:28;18.50;77.00
3678;DHT22;1855;50.934;6.958;2023-09-19T08:58:00;18.50;77.30
3678;DHT22;1855;50.934;6.958;2023-09-19T09:00:28;18.40;77.40
3678;DHT22;1855;50.934;6.958;2023-09-19T09:02:57;18.30;76.80
3678;DHT22;1855;50.934;6.958;2023-09-19T09:05:25;18.30;77.10
3678;DHT22;1855;50.934;6.958;2023-09-19T09:07:52;18.40;76.40
3678;DHT22;1855;50.934;6.958;2023-09-19T09:10:23;18.50;75.10
3678;DHT22;1855;50.934;6.958;2023-09-19T09:12:51;18.50;75.50
3678;DHT22;1855;50.934;6.958;2023-09-19T09:15:19;18.40;76.10
3678;DHT22;1855;50.934;6.958;2023-09-19T09:17:48;18.50;76.20
3678;DHT22;1855;50.934;6.958;2023-09-19T09:20:16;18.60;76.60
3678;DHT22;1855;50.934;6.958;2023-09-19T09:22:51;18.80;74.90
3678;DHT22;1855;50.934;6.958;2023-09-19T09:25:19;18.90;73.20
3678;DHT22;1855;50.934;6.958;2023-09-19T09:27:58;19.00;72.50
3678;DHT22;1855;50.934;6.958;2023-09-19T09:30:33;19.00;71.60
3678;DHT22;1855;50.934;6.958;2023-09-19T09:33:10;18.90;71.70
3678;DHT22;1855;50.934;6.958;2023-09-19T09:35:37;19.00;70.90
3678;DHT22;1855;50.934;6.958;2023-09-19T09:38:13;19.10;70.60
3678;DHT22;1855;50.934;6.958;2023-09-19T09:40:46;19.30;70.00
3678;DHT22;1855;50.934;6.958;2023-09-19T09:43:29;19.50;67.10
3678;DHT22;1855;50.934;6.958;2023-09-19T09:46:14;19.70;65.80
3678;DHT22;1855;50.934;6.958;2023-09-19T09:49:00;19.80;65.10
3678;DHT22;1855;50.934;6.958;2023-09-19T09:51:59;19.60;64.60
3678;DHT22;1855;50.934;6.958;2023-09-19T09:54:31;19.50;66.30
3678;DHT22;1855;50.934;6.958;2023-09-19T09:57:03;19.60;67.50
3678;DHT22;1855;50.934;6.958;2023-09-19T09:59:48;19.80;66.20
3678;DHT22;1855;50.934;6.958;2023-09-19T10:02:21;19.90;64.70
3678;DHT22;1855;50.934;6.958;2023-09-19T10:04:54;19.70;65.50
3678;DHT22;1855;50.934;6.958;2023-09-19T10:07:34;19.70;65.30
3678;DHT22;1855;50.934;6.958;2023-09-19T10:10:05;19.90;65.40
3678;DHT22;1855;50.934;6.958;2023-09-19T10:12:44;20.00;63.90
3678;DHT22;1855;50.934;6.958;2023-09-19T10:15:16;20.20;64.00
3678;DHT22;1855;50.934;6.958;2023-09-19T10:17:44;20.40;63.30
3678;DHT22;1855;50.934;6.958;2023-09-19T10:20:16;20.50;63.30
3678;DHT22;1855;50.934;6.958;2023-09-19T10:23:00;20.60;63.40
3678;DHT22;1855;50.934;6.958;2023-09-19T10:25:28;20.50;63.10
3678;DHT22;1855;50.934;6.958;2023-09-19T10:27:56;20.50;61.90
3678;DHT22;1855;50.934;6.958;2023-09-19T10:30:25;20.50;63.70
3678;DHT22;1855;50.934;6.958;2023-09-19T10:32:59;20.60;64.30
3678;DHT22;1855;50.934;6.958;2023-09-19T10:35:26;20.60;63.20
3678;DHT22;1855;50.934;6.958;2023-09-19T10:37:55;20.60;61.20
3678;DHT22;1855;50.934;6.958;2023-09-19T10:40:24;20.60;60.90
3678;DHT22;1855;50.934;6.958;2023-09-19T10:43:00;20.50;61.60
3678;DHT22;1855;50.934;6.958;2023-09-19T10:45:31;20.40;61.70
3678;DHT22;1855;50.934;6.958;2023-09-19T10:47:58;20.30;63.50
3678;DHT22;1855;50.934;6.958;2023-09-19T10:50:26;20.30;64.70
3678;DHT22;1855;50.934;6.958;2023-09-19T10:52:54;20.50;62.00
3678;DHT22;1855;50.934;6.958;2023-09-19T10:55:28;20.70;61.00
3678;DHT22;1855;50.934;6.958;2023-09-19T10:57:55;20.70;60.70
3678;DHT22;1855;50.934;6.958;2023-09-19T11:00:23;20.60;62.60
3678;DHT22;1855;50.934;6.958;2023-09-19T11:03:21;20.70;61.80
3678;DHT22;1855;50.934;6.958;2023-09-19T11:06:06;20.90;61.00
3678;DHT22;1855;50.934;6.958;2023-09-19T11:08:56;21.10;60.00
3678;DHT22;1855;50.934;6.958;2023-09-19T11:11:43;21.30;59.70
3678;DHT22;1855;50.934;6.958;2023-09-19T11:14:15;21.30;57.90
3678;DHT22;1855;50.934;6.958;2023-09-19T11:20:23;21.20;57.80
3678;DHT22;1855;50.934;6.958;2023-09-19T11:23:20;21.30;57.00
3678;DHT22;1855;50.934;6.958;2023-09-19T11:25:50;21.20;54.20
3678;DHT22;1855;50.934;6.958;2023-09-19T11:28:34;21.10;55.50
3678;DHT22;1855;50.934;6.958;2023-09-19T11:34:37;21.20;54.40
3678;DHT22;1855;50.934;6.958;2023-09-19T11:40:36;22.10;49.10
3678;DHT22;1855;50.934;6.958;2023-09-19T11:43:32;22.20;47.60
3678;DHT22;1855;50.934;6.958;2023-09-19T11:46:04;21.90;48.30
3678;DHT22;1855;50.934;6.958;2023-09-19T11:48:32;21.50;49.80
3678;DHT22;1855;50.934;6.958;2023-09-19T11:51:00;21.40;50.50
3678;DHT22;1855;50.934;6.958;2023-09-19T11:53:34;21.30;51.00
3678;DHT22;1855;50.934;6.958;2023-09-19T11:56:04;21.40;51.30
3678;DHT22;1855;50.934;6.958;2023-09-19T11:58:32;21.80;50.40
3678;DHT22;1855;50.934;6.958;2023-09-19T12:01:00;22.30;48.80
3678;DHT22;1855;50.934;6.958;2023-09-19T12:03:40;22.60;45.60
3678;DHT22;1855;50.934;6.958;2023-09-19T12:06:12;22.60;45.60
3678;DHT22;1855;50.934;6.958;2023-09-19T12:08:41;22.50;44.70
3678;DHT22;1855;50.934;6.958;2023-09-19T12:11:15;22.60;44.70
3678;DHT22;1855;50.934;6.958;2023-09-19T12:13:43;22.50;44.00
3678;DHT22;1855;50.934;6.958;2023-09-19T12:16:14;22.50;44.70
3678;DHT22;1855;50.934;6.958;2023-09-19T12:18:42;22.40;44.60
3678;DHT22;1855;50.934;6.958;2023-09-19T12:21:25;22.50;44.00
3678;DHT22;1855;50.934;6.958;2023-09-19T12:24:04;22.50;43.30
3678;DHT22;1855;50.934;6.958;2023-09-19T12:26:38;22.40;44.30
3678;DHT22;1855;50.934;6.958;2023-09-19T12:29:11;22.30;43.40
3678;DHT22;1855;50.934;6.958;2023-09-19T12:31:47;22.30;43.00
3678;DHT22;1855;50.934;6.958;2023-09-19T12:34:16;22.30;43.20
3678;DHT22;1855;50.934;6.958;2023-09-19T12:36:45;22.40;43.50
3678;DHT22;1855;50.934;6.958;2023-09-19T12:39:22;22.40;43.20
3678;DHT22;1855;50.934;6.958;2023-09-19T12:41:50;22.50;43.70
3678;DHT22;1855;50.934;6.958;2023-09-19T12:44:17;22.60;43.60
3678;DHT22;1855;50.934;6.958;2023-09-19T12:46:44;22.70;42.50
3678;DHT22;1855;50.934;6.958;2023-09-19T12:49:15;22.70;42.30
3678;DHT22;1855;50.934;6.958;2023-09-19T12:51:44;22.80;41.70
3678;DHT22;1855;50.934;6.958;2023-09-19T12:54:10;22.80;41.80
3678;DHT22;1855;50.934;6.958;2023-09-19T12:56:42;22.70;42.40
3678;DHT22;1855;50.934;6.958;2023-09-19T12:59:12;22.70;42.20
3678;DHT22;1855;50.934;6.958;2023-09-19T13:01:39;22.80;42.70
3678;DHT22;1855;50.934;6.958;2023-09-19T13:04:11;22.80;42.60
3678;DHT22;1855;50.934;6.958;2023-09-19T13:06:40;22.90;43.10
3678;DHT22;1855;50.934;6.958;2023-09-19T13:09:11;22.90;42.20
3678;DHT22;1855;50.934;6.958;2023-09-19T13:11:39;22.90;42.00
3678;DHT22;1855;50.934;6.958;2023-09-19T13:14:17;22.90;41.90
3678;DHT22;1855;50.934;6.958;2023-09-19T13:16:57;23.20;41.90
3678;DHT22;1855;50.934;6.958;2023-09-19T13:19:39;23.30;43.00
3678;DHT22;1855;50.934;6.958;2023-09-19T13:22:36;23.10;41.70
3678;DHT22;1855;50.934;6.958;2023-09-19T13:25:05;23.10;42.30
3678;DHT22;1855;50.934;6.958;2023-09-19T13:27:33;23.10;43.60
3678;DHT22;1855;50.934;6.958;2023-09-19T13:30:01;23.20;43.10
3678;DHT22;1855;50.934;6.958;2023-09-19T13:32:32;23.30;42.70
3678;DHT22;1855;50.934;6.958;2023-09-19T13:34:58;23.30;42.70
3678;DHT22;1855;50.934;6.958;2023-09-19T13:37:25;23.20;42.90
3678;DHT22;1855;50.934;6.958;2023-09-19T13:39:52;23.10;43.60
3678;DHT22;1855;50.934;6.958;2023-09-19T13:42:19;23.20;44.50
3678;DHT22;1855;50.934;6.958;2023-09-19T13:44:47;23.20;44.20
3678;DHT22;1855;50.934;6.958;2023-09-19T13:47:15;23.40;43.60
3678;DHT22;1855;50.934;6.958;2023-09-19T13:49:42;23.20;43.90
3678;DHT22;1855;50.934;6.958;2023-09-19T13:52:09;23.20;44.40
3678;DHT22;1855;50.934;6.958;2023-09-19T13:54:38;23.20;43.50
3678;DHT22;1855;50.934;6.958;2023-09-19T13:57:05;22.90;44.00
3678;DHT22;1855;50.934;6.958;2023-09-19T13:59:33;23.10;44.50
3678;DHT22;1855;50.934;6.958;2023-09-19T14:01:59;23.30;44.10
3678;DHT22;1855;50.934;6.958;2023-09-19T14:04:27;23.70;43.20
3678;DHT22;1855;50.934;6.958;2023-09-19T14:06:54;24.00;41.50
3678;DHT22;1855;50.934;6.958;2023-09-19T14:09:23;24.00;41.90
3678;DHT22;1855;50.934;6.958;2023-09-19T14:11:50;23.90;41.50
3678;DHT22;1855;50.934;6.958;2023-09-19T14:14:18;23.50;43.20
3678;DHT22;1855;50.934;6.958;2023-09-19T14:16:45;23.00;43.50
3678;DHT22;1855;50.934;6.958;2023-09-19T14:19:12;22.50;45.40
3678;DHT22;1855;50.934;6.958;2023-09-19T14:21:42;22.40;46.10
3678;DHT22;1855;50.934;6.958;2023-09-19T14:24:09;22.20;46.50
3678;DHT22;1855;50.934;6.958;2023-09-19T14:26:37;21.90;47.50
3678;DHT22;1855;50.934;6.958;2023-09-19T14:29:04;21.70;48.50
3678;DHT22;1855;50.934;6.958;2023-09-19T14:31:37;21.50;50.20
3678;DHT22;1855;50.934;6.958;2023-09-19T14:34:04;21.40;51.30
3678;DHT22;1855;50.934;6.958;2023-09-19T14:36:30;21.40;51.70
3678;DHT22;1855;50.934;6.958;2023-09-19T14:38:59;21.30;52.60
3678;DHT22;1855;50.934;6.958;2023-09-19T14:41:26;21.30;53.10
3678;DHT22;1855;50.934;6.958;2023-09-19T14:43:52;21.30;53.90
3678;DHT22;1855;50.934;6.958;2023-09-19T14:46:20;21.30;53.60
3678;DHT22;1855;50.934;6.958;2023-09-19T14:48:50;21.40;53.80
3678;DHT22;1855;50.934;6.958;2023-09-19T14:51:17;21.40;53.20
3678;DHT22;1855;50.934;6.958;2023-09-19T14:53:44;21.40;53.30
3678;DHT22;1855;50.934;6.958;2023-09-19T14:56:13;21.50;52.90
3678;DHT22;1855;50.934;6.958;2023-09-19T14:58:43;21.50;52.90
3678;DHT22;1855;50.934;6.958;2023-09-19T15:01:11;21.60;52.70
3678;DHT22;1855;50.934;6.958;2023-09-19T15:03:39;21.60;53.10
3678;DHT22;1855;50.934;6.958;2023-09-19T15:06:07;21.70;54.30
3678;DHT22;1855;50.934;6.958;2023-09-19T15:08:36;21.80;51.30
3678;DHT22;1855;50.934;6.958;2023-09-19T15:11:03;21.90;51.30
3678;DHT22;1855;50.934;6.958;2023-09-19T15:13:32;21.80;52.40
3678;DHT22;1855;50.934;6.958;2023-09-19T15:16:00;22.00;50.90
3678;DHT22;1855;50.934;6.958;2023-09-19T15:18:27;22.20;51.20
3678;DHT22;1855;50.934;6.958;2023-09-19T15:20:55;22.20;50.20
3678;DHT22;1855;50.934;6.958;2023-09-19T15:23:22;22.10;51.30
3678;DHT22;1855;50.934;6.958;2023-09-19T15:25:49;21.90;50.80
3678;DHT22;1855;50.934;6.958;2023-09-19T15:28:16;21.60;51.80
3678;DHT22;1855;50.934;6.958;2023-09-19T15:30:44;21.50;52.40
3678;DHT22;1855;50.934;6.958;2023-09-19T15:33:10;21.30;52.60
3678;DHT22;1855;50.934;6.958;2023-09-19T15:35:37;21.20;53.30
3678;DHT22;1855;50.934;6.958;2023-09-19T15:38:04;21.00;53.70
3678;DHT22;1855;50.934;6.958;2023-09-19T15:40:31;21.00;54.10
3678;DHT22;1855;50.934;6.958;2023-09-19T15:42:58;20.80;54.60
3678;DHT22;1855;50.934;6.958;2023-09-19T15:45:26;20.70;55.30
3678;DHT22;1855;50.934;6.958;2023-09-19T15:47:54;20.70;55.30
3678;DHT22;1855;50.934;6.958;2023-09-19T15:50:21;20.60;56.20
3678;DHT22;1855;50.934;6.958;2023-09-19T15:52:53;20.60;56.80
3678;DHT22;1855;50.934;6.958;2023-09-19T15:55:21;20.70;57.10
3678;DHT22;1855;50.934;6.958;2023-09-19T15:57:48;20.70;56.80
3678;DHT22;1855;50.934;6.958;2023-09-19T16:00:15;20.60;57.10
3678;DHT22;1855;50.934;6.958;2023-09-19T16:02:42;20.60;57.30
3678;DHT22;1855;50.934;6.958;2023-09-19T16:05:13;20.60;57.30
3678;DHT22;1855;50.934;6.958;2023-09-19T16:07:40;20.70;57.80
3678;DHT22;1855;50.934;6.958;2023-09-19T16:10:07;20.70;57.40
3678;DHT22;1855;50.934;6.958;2023-09-19T16:12:34;20.70;58.00
3678;DHT22;1855;50.934;6.958;2023-09-19T16:15:03;20.70;57.70
3678;DHT22;1855;50.934;6.958;2023-09-19T16:17:30;20.80;57.20
3678;DHT22;1855;50.934;6.958;2023-09-19T16:19:56;20.80;57.90
3678;DHT22;1855;50.934;6.958;2023-09-19T16:22:24;20.80;57.70
3678;DHT22;1855;50.934;6.958;2023-09-19T16:24:51;20.80;57.30
3678;DHT22;1855;50.934;6.958;2023-09-19T16:27:19;20.70;58.40